sensor_id;sensor_type;location;lat;lon;timestamp;temperature;humidity
52513;DHT22;38422;53.172;6.974;2023-04-01T00:02:08;10.40;99.90
52513;DHT22;38422;53.172;6.974;2023-04-01T00:04:33;10.50;99.90
52513;DHT22;38422;53.172;6.974;2023-04-01T00:06:59;10.50;99.90
52513;DHT22;38422;53.172;6.974;2023-04-01T00:09:25;10.40;99.90
52513;DHT22;38422;53.172;6.974;2023-04-01T00:11:51;10.40;99.90
52513;DHT22;38422;53.172;6.974;2023-04-01T00:14:17;10.40;99.90
52513;DHT22;38422;53.172;6.974;2023-04-01T00:16:43;10.40;99.90
52513;DHT22;38422;53.172;6.974;2023-04-01T00:19:08;10.40;99.90
52513;DHT22;38422;53.172;6.974;2023-04-01T00:21:34;10.40;99.90
52513;DHT22;38422;53.172;6.974;2023-04-01T00:24:01;10.40;99.90
52513;DHT22;38422;53.172;6.974;2023-04-01T00:26:26;10.40;99.90
52513;DHT22;38422;53.172;6.974;2023-04-01T00:28:52;10.40;99.90
52513;DHT22;38422;53.172;6.974;2023-04-01T00:31:18;10.40;99.90
52513;DHT22;38422;53.172;6.974;2023-04-01T00:33:44;10.40;99.90
52513;DHT22;38422;53.172;6.974;2023-04-01T00:36:15;10.40;99.90
52513;DHT22;38422;53.172;6.974;2023-04-01T00:38:41;10.40;99.90
52513;DHT22;38422;53.172;6.974;2023-04-01T00:41:09;10.40;99.90
52513;DHT22;38422;53.172;6.974;2023-04-01T00:43:40;10.40;99.90
52513;DHT22;38422;53.172;6.974;2023-04-01T00:46:06;10.40;99.90
52513;DHT22;38422;53.172;6.974;2023-04-01T00:48:38;10.40;99.90
52513;DHT22;38422;53.172;6.974;2023-04-01T00:51:15;10.40;99.90
52513;DHT22;38422;53.172;6.974;2023-04-01T00:53:43;10.40;99.90
52513;DHT22;38422;53.172;6.974;2023-04-01T00:56:14;10.40;99.90
52513;DHT22;38422;53.172;6.974;2023-04-01T00:58:47;10.40;99.90
52513;DHT22;38422;53.172;6.974;2023-04-01T01:01:14;10.40;99.90
52513;DHT22;38422;53.172;6.974;2023-04-01T01:03:39;10.40;99.90
52513;DHT22;38422;53.172;6.974;2023-04-01T01:11:18;10.40;99.90
52513;DHT22;38422;53.172;6.974;2023-04-01T01:13:53;10.40;99.90
52513;DHT22;38422;53.172;6.974;2023-04-01T01:16:31;10.30;99.90
52513;DHT22;38422;53.172;6.974;2023-04-01T01:21:45;10.30;99.90
52513;DHT22;38422;53.172;6.974;2023-04-01T01:27:06;10.30;99.90
52513;DHT22;38422;53.172;6.974;2023-04-01T01:32:27;10.40;99.90
52513;DHT22;38422;53.172;6.974;2023-04-01T01:37:42;10.30;99.90
52513;DHT22;38422;53.172;6.974;2023-04-01T01:40:09;10.30;99.90
52513;DHT22;38422;53.172;6.974;2023-04-01T01:42:39;10.30;99.90
52513;DHT22;38422;53.172;6.974;2023-04-01T01:45:07;10.30;99.90
52513;DHT22;38422;53.172;6.974;2023-04-01T01:47:35;10.30;99.90
52513;DHT22;38422;53.172;6.974;2023-04-01T01:50:01;10.40;99.90
52513;DHT22;38422;53.172;6.974;2023-04-01T01:52:28;10.30;99.90
52513;DHT22;38422;53.172;6.974;2023-04-01T01:54:57;10.30;99.90
52513;DHT22;38422;53.172;6.974;2023-04-01T01:57:26;10.30;99.90
52513;DHT22;38422;53.172;6.974;2023-04-01T01:59:59;10.30;99.90
52513;DHT22;38422;53.172;6.974;2023-04-01T02:02:26;10.30;99.90
52513;DHT22;38422;53.172;6.974;2023-04-01T02:04:57;10.30;99.90
52513;DHT22;38422;53.172;6.974;2023-04-01T02:07:33;10.30;99.90
52513;DHT22;38422;53.172;6.974;2023-04-01T02:10:01;10.30;99.90
52513;DHT22;38422;53.172;6.974;2023-04-01T02:12:28;10.30;99.90
52513;DHT22;38422;53.172;6.974;2023-04-01T02:15:03;10.30;99.90
52513;DHT22;38422;53.172;6.974;2023-04-01T02:17:31;10.30;99.90
52513;DHT22;38422;53.172;6.974;2023-04-01T02:20:01;10.30;99.90
52513;DHT22;38422;53.172;6.974;2023-04-01T02:22:33;10.30;99.90
52513;DHT22;38422;53.172;6.974;2023-04-01T02:25:07;10.30;99.90
52513;DHT22;38422;53.172;6.974;2023-04-01T02:27:34;10.20;99.90
52513;DHT22;38422;53.172;6.974;2023-04-01T02:30:00;10.20;99.90
52513;DHT22;38422;53.172;6.974;2023-04-01T02:32:27;10.20;99.90
52513;DHT22;38422;53.172;6.974;2023-04-01T02:34:53;10.20;99.90
52513;DHT22;38422;53.172;6.974;2023-04-01T02:37:19;10.20;99.90
52513;DHT22;38422;53.172;6.974;2023-04-01T02:39:45;10.30;99.90
52513;DHT22;38422;53.172;6.974;2023-04-01T02:42:11;10.30;99.90
52513;DHT22;38422;53.172;6.974;2023-04-01T02:44:36;10.30;99.90
52513;DHT22;38422;53.172;6.974;2023-04-01T02:47:02;10.30;99.90
52513;DHT22;38422;53.172;6.974;2023-04-01T02:49:28;10.30;99.90
52513;DHT22;38422;53.172;6.974;2023-04-01T02:51:53;10.30;99.90
52513;DHT22;38422;53.172;6.974;2023-04-01T02:54:22;10.30;99.90
52513;DHT22;38422;53.172;6.974;2023-04-01T02:56:47;10.30;99.90
52513;DHT22;38422;53.172;6.974;2023-04-01T02:59:14;10.30;99.90
52513;DHT22;38422;53.172;6.974;2023-04-01T03:01:40;10.30;99.90
52513;DHT22;38422;53.172;6.974;2023-04-01T03:04:05;10.30;99.90
52513;DHT22;38422;53.172;6.974;2023-04-01T03:06:31;10.30;99.90
52513;DHT22;38422;53.172;6.974;2023-04-01T03:08:57;10.30;99.90
52513;DHT22;38422;53.172;6.974;2023-04-01T03:11:22;10.30;99.90
52513;DHT22;38422;53.172;6.974;2023-04-01T03:13:48;10.30;99.90
52513;DHT22;38422;53.172;6.974;2023-04-01T03:16:14;10.30;99.90
52513;DHT22;38422;53.172;6.974;2023-04-01T03:18:40;10.30;99.90
52513;DHT22;38422;53.172;6.974;2023-04-01T03:21:14;10.30;99.90
52513;DHT22;38422;53.172;6.974;2023-04-01T03:23:40;10.30;99.90
52513;DHT22;38422;53.172;6.974;2023-04-01T03:26:05;10.30;99.90
52513;DHT22;38422;53.172;6.974;2023-04-01T03:28:31;10.30;99.90
52513;DHT22;38422;53.172;6.974;2023-04-01T03:30:57;10.30;99.90
52513;DHT22;38422;53.172;6.974;2023-04-01T03:33:22;10.30;99.90
52513;DHT22;38422;53.172;6.974;2023-04-01T03:35:48;10.30;99.90
52513;DHT22;38422;53.172;6.974;2023-04-01T03:38:17;10.30;99.90
52513;DHT22;38422;53.172;6.974;2023-04-01T03:40:43;10.30;99.90
52513;DHT22;38422;53.172;6.974;2023-04-01T03:43:10;10.30;99.90
52513;DHT22;38422;53.172;6.974;2023-04-01T03:45:43;10.30;99.90
52513;DHT22;38422;53.172;6.974;2023-04-01T03:48:08;10.30;99.90
52513;DHT22;38422;53.172;6.974;2023-04-01T03:50:34;10.30;99.90
52513;DHT22;38422;53.172;6.974;2023-04-01T03:53:00;10.30;99.90
52513;DHT22;38422;53.172;6.974;2023-04-01T03:55:26;10.30;99.90
52513;DHT22;38422;53.172;6.974;2023-04-01T03:57:52;10.30;99.90
52513;DHT22;38422;53.172;6.974;2023-04-01T04:00:18;10.30;99.90
52513;DHT22;38422;53.172;6.974;2023-04-01T04:02:44;10.20;99.90
52513;DHT22;38422;53.172;6.974;2023-04-01T04:05:10;10.20;99.90
52513;DHT22;38422;53.172;6.974;2023-04-01T04:07:36;10.20;99.90
52513;DHT22;38422;53.172;6.974;2023-04-01T04:10:02;10.20;99.90
52513;DHT22;38422;53.172;6.974;2023-04-01T04:12:28;10.20;99.90
52513;DHT22;38422;53.172;6.974;2023-04-01T04:14:54;10.20;99.90
52513;DHT22;38422;53.172;6.974;2023-04-01T04:17:20;10.20;99.90
52513;DHT22;38422;53.172;6.974;2023-04-01T04:19:45;10.20;99.90
52513;DHT22;38422;53.172;6.974;2023-04-01T04:22:11;10.20;99.90
52513;DHT22;38422;53.172;6.974;2023-04-01T04:24:37;10.20;99.90
52513;DHT22;38422;53.172;6.974;2023-04-01T04:27:03;10.20;99.90
52513;DHT22;38422;53.172;6.974;2023-04-01T04:29:29;10.20;99.90
52513;DHT22;38422;53.172;6.974;2023-04-01T04:31:55;10.20;99.90
52513;DHT22;38422;53.172;6.974;2023-04-01T04:34:21;10.10;99.90
52513;DHT22;38422;53.172;6.974;2023-04-01T04:36:48;10.10;99.90
52513;DHT22;38422;53.172;6.974;2023-04-01T04:39:14;10.10;99.90
52513;DHT22;38422;53.172;6.974;2023-04-01T04:41:41;10.10;99.90
52513;DHT22;38422;53.172;6.974;2023-04-01T04:44:07;10.10;99.90
52513;DHT22;38422;53.172;6.974;2023-04-01T04:46:33;10.10;99.90
52513;DHT22;38422;53.172;6.974;2023-04-01T04:48:59;10.10;99.90
52513;DHT22;38422;53.172;6.974;2023-04-01T04:51:25;10.10;99.90
52513;DHT22;38422;53.172;6.974;2023-04-01T04:53:51;10.10;99.90
52513;DHT22;38422;53.172;6.974;2023-04-01T04:56:21;10.10;99.90
52513;DHT22;38422;53.172;6.974;2023-04-01T04:58:48;10.10;99.90
52513;DHT22;38422;53.172;6.974;2023-04-01T05:01:15;10.10;99.90
52513;DHT22;38422;53.172;6.974;2023-04-01T05:03:41;10.10;99.90
52513;DHT22;38422;53.172;6.974;2023-04-01T05:06:08;10.10;99.90
52513;DHT22;38422;53.172;6.974;2023-04-01T05:08:34;10.10;99.90
52513;DHT22;38422;53.172;6.974;2023-04-01T05:11:01;10.10;99.90
52513;DHT22;38422;53.172;6.974;2023-04-01T05:13:28;10.10;99.90
52513;DHT22;38422;53.172;6.974;2023-04-01T05:15:57;10.10;99.90
52513;DHT22;38422;53.172;6.974;2023-04-01T05:18:22;10.10;99.90
52513;DHT22;38422;53.172;6.974;2023-04-01T05:20:49;10.10;99.90
52513;DHT22;38422;53.172;6.974;2023-04-01T05:23:15;10.10;99.90
52513;DHT22;38422;53.172;6.974;2023-04-01T05:25:41;10.10;99.90
52513;DHT22;38422;53.172;6.974;2023-04-01T05:28:07;10.10;99.90
52513;DHT22;38422;53.172;6.974;2023-04-01T05:30:33;10.20;99.90
52513;DHT22;38422;53.172;6.974;2023-04-01T05:32:58;10.10;99.90
52513;DHT22;38422;53.172;6.974;2023-04-01T05:35:24;10.20;99.90
52513;DHT22;38422;53.172;6.974;2023-04-01T05:37:50;10.20;99.90
52513;DHT22;38422;53.172;6.974;2023-04-01T05:40:16;10.20;99.90
52513;DHT22;38422;53.172;6.974;2023-04-01T05:42:42;10.20;99.90
52513;DHT22;38422;53.172;6.974;2023-04-01T05:45:08;10.20;99.90
52513;DHT22;38422;53.172;6.974;2023-04-01T05:47:34;10.20;99.90
52513;DHT22;38422;53.172;6.974;2023-04-01T05:50:00;10.20;99.90
52513;DHT22;38422;53.172;6.974;2023-04-01T05:52:26;10.20;99.90
52513;DHT22;38422;53.172;6.974;2023-04-01T05:54:51;10.20;99.90
52513;DHT22;38422;53.172;6.974;2023-04-01T05:57:17;10.20;99.90
52513;DHT22;38422;53.172;6.974;2023-04-01T05:59:43;10.20;99.90
52513;DHT22;38422;53.172;6.974;2023-04-01T06:02:09;10.20;99.90
52513;DHT22;38422;53.172;6.974;2023-04-01T06:04:39;10.30;99.90
52513;DHT22;38422;53.172;6.974;2023-04-01T06:07:14;10.30;99.90
52513;DHT22;38422;53.172;6.974;2023-04-01T06:09:40;10.20;99.90
52513;DHT22;38422;53.172;6.974;2023-04-01T06:40:52;10.30;99.90
52513;DHT22;38422;53.172;6.974;2023-04-01T06:50:01;10.40;99.90
52513;DHT22;38422;53.172;6.974;2023-04-01T06:52:19;10.40;99.90
52513;DHT22;38422;53.172;6.974;2023-04-01T06:54:55;10.40;99.90
52513;DHT22;38422;53.172;6.974;2023-04-01T06:57:42;10.40;99.90
52513;DHT22;38422;53.172;6.974;2023-04-01T07:02:53;10.50;99.90
52513;DHT22;38422;53.172;6.974;2023-04-01T07:05:22;10.50;99.90
52513;DHT22;38422;53.172;6.974;2023-04-01T07:07:52;10.50;99.90
52513;DHT22;38422;53.172;6.974;2023-04-01T07:10:43;10.50;99.90
52513;DHT22;38422;53.172;6.974;2023-04-01T07:13:22;10.60;99.90
52513;DHT22;38422;53.172;6.974;2023-04-01T07:16:20;10.60;99.90
52513;DHT22;38422;53.172;6.974;2023-04-01T07:18:49;10.70;99.90
52513;DHT22;38422;53.172;6.974;2023-04-01T07:21:27;10.70;99.90
52513;DHT22;38422;53.172;6.974;2023-04-01T07:23:59;10.80;99.90
52513;DHT22;38422;53.172;6.974;2023-04-01T07:26:25;10.90;99.90
52513;DHT22;38422;53.172;6.974;2023-04-01T07:28:53;10.90;99.90
52513;DHT22;38422;53.172;6.974;2023-04-01T07:34:09;11.00;99.90
52513;DHT22;38422;53.172;6.974;2023-04-01T07:42:15;11.20;99.90
52513;DHT22;38422;53.172;6.974;2023-04-01T07:50:26;11.30;99.90
52513;DHT22;38422;53.172;6.974;2023-04-01T07:55:30;11.30;99.90
52513;DHT22;38422;53.172;6.974;2023-04-01T07:58:19;11.30;99.90
52513;DHT22;38422;53.172;6.974;2023-04-01T08:05:55;11.20;99.90
52513;DHT22;38422;53.172;6.974;2023-04-01T08:22:32;11.30;99.90
52513;DHT22;38422;53.172;6.974;2023-04-01T08:25:02;11.30;99.90
52513;DHT22;38422;53.172;6.974;2023-04-01T08:27:40;11.30;99.90
52513;DHT22;38422;53.172;6.974;2023-04-01T08:30:20;11.30;99.90
52513;DHT22;38422;53.172;6.974;2023-04-01T08:33:13;11.30;99.90
52513;DHT22;38422;53.172;6.974;2023-04-01T08:35:50;11.30;99.90
52513;DHT22;38422;53.172;6.974;2023-04-01T08:38:44;11.20;99.90
52513;DHT22;38422;53.172;6.974;2023-04-01T08:41:31;11.20;99.90
52513;DHT22;38422;53.172;6.974;2023-04-01T08:54:35;11.20;99.90
52513;DHT22;38422;53.172;6.974;2023-04-01T08:57:34;11.30;99.90
52513;DHT22;38422;53.172;6.974;2023-04-01T09:00:13;11.30;99.90
52513;DHT22;38422;53.172;6.974;2023-04-01T09:03:13;11.30;99.90
52513;DHT22;38422;53.172;6.974;2023-04-01T09:23:38;11.40;99.90
52513;DHT22;38422;53.172;6.974;2023-04-01T09:26:34;11.30;99.90
52513;DHT22;38422;53.172;6.974;2023-04-01T09:43:37;11.00;99.90
52513;DHT22;38422;53.172;6.974;2023-04-01T10:02:50;10.80;99.90
52513;DHT22;38422;53.172;6.974;2023-04-01T10:08:37;10.90;99.90
52513;DHT22;38422;53.172;6.974;2023-04-01T10:11:19;10.90;99.90
52513;DHT22;38422;53.172;6.974;2023-04-01T10:17:33;10.90;99.90
52513;DHT22;38422;53.172;6.974;2023-04-01T10:20:13;10.90;99.90
52513;DHT22;38422;53.172;6.974;2023-04-01T10:28:44;10.90;99.90
52513;DHT22;38422;53.172;6.974;2023-04-01T10:34:31;10.90;99.90
52513;DHT22;38422;53.172;6.974;2023-04-01T10:56:59;11.00;99.90
52513;DHT22;38422;53.172;6.974;2023-04-01T11:17:15;11.50;99.90
52513;DHT22;38422;53.172;6.974;2023-04-01T11:26:09;11.40;99.90
52513;DHT22;38422;53.172;6.974;2023-04-01T11:37:01;11.60;99.90
52513;DHT22;38422;53.172;6.974;2023-04-01T11:43:06;11.80;99.90
52513;DHT22;38422;53.172;6.974;2023-04-01T11:45:21;11.80;99.90
52513;DHT22;38422;53.172;6.974;2023-04-01T11:53:27;11.80;99.90
52513;DHT22;38422;53.172;6.974;2023-04-01T12:02:29;11.70;99.90
52513;DHT22;38422;53.172;6.974;2023-04-01T12:08:18;11.60;99.90
52513;DHT22;38422;53.172;6.974;2023-04-01T12:13:48;11.70;99.90
52513;DHT22;38422;53.172;6.974;2023-04-01T12:20:01;11.60;99.90
52513;DHT22;38422;53.172;6.974;2023-04-01T12:22:45;11.60;99.90
52513;DHT22;38422;53.172;6.974;2023-04-01T12:28:25;11.50;99.90
52513;DHT22;38422;53.172;6.974;2023-04-01T12:31:15;11.50;99.90
52513;DHT22;38422;53.172;6.974;2023-04-01T12:39:29;11.40;99.90
52513;DHT22;38422;53.172;6.974;2023-04-01T12:42:11;11.40;99.90
52513;DHT22;38422;53.172;6.974;2023-04-01T13:02:49;11.30;99.90
52513;DHT22;38422;53.172;6.974;2023-04-01T13:05:24;11.20;99.90
52513;DHT22;38422;53.172;6.974;2023-04-01T13:21:50;10.90;99.90
52513;DHT22;38422;53.172;6.974;2023-04-01T13:24:34;11.00;99.90
52513;DHT22;38422;53.172;6.974;2023-04-01T13:32:30;11.00;99.90
52513;DHT22;38422;53.172;6.974;2023-04-01T13:43:43;10.90;99.90
52513;DHT22;38422;53.172;6.974;2023-04-01T13:46:40;11.00;99.90
52513;DHT22;38422;53.172;6.974;2023-04-01T13:56:59;11.10;99.90
52513;DHT22;38422;53.172;6.974;2023-04-01T14:02:50;11.10;99.90
52513;DHT22;38422;53.172;6.974;2023-04-01T14:11:13;10.80;99.90
52513;DHT22;38422;53.172;6.974;2023-04-01T14:35:29;10.50;99.90
52513;DHT22;38422;53.172;6.974;2023-04-01T14:43:42;10.40;99.90
52513;DHT22;38422;53.172;6.974;2023-04-01T14:49:14;10.40;99.90
52513;DHT22;38422;53.172;6.974;2023-04-01T14:51:41;10.30;99.90
52513;DHT22;38422;53.172;6.974;2023-04-01T14:56:39;10.20;99.90
52513;DHT22;38422;53.172;6.974;2023-04-01T14:59:13;10.20;99.90
52513;DHT22;38422;53.172;6.974;2023-04-01T15:02:01;10.20;99.90
52513;DHT22;38422;53.172;6.974;2023-04-01T15:24:07;9.70;99.90
52513;DHT22;38422;53.172;6.974;2023-04-01T15:31:59;9.50;99.90
52513;DHT22;38422;53.172;6.974;2023-04-01T15:37:29;9.50;99.90
52513;DHT22;38422;53.172;6.974;2023-04-01T15:40:15;9.40;99.90
52513;DHT22;38422;53.172;6.974;2023-04-01T15:45:26;9.30;99.90
52513;DHT22;38422;53.172;6.974;2023-04-01T15:56:48;9.10;99.90
52513;DHT22;38422;53.172;6.974;2023-04-01T16:02:34;9.10;99.90
52513;DHT22;38422;53.172;6.974;2023-04-01T16:05:09;9.00;99.90
52513;DHT22;38422;53.172;6.974;2023-04-01T16:11:22;9.00;99.90
52513;DHT22;38422;53.172;6.974;2023-04-01T16:19:49;9.00;99.90
52513;DHT22;38422;53.172;6.974;2023-04-01T16:22:45;9.00;99.90
52513;DHT22;38422;53.172;6.974;2023-04-01T16:25:20;9.00;99.90
52513;DHT22;38422;53.172;6.974;2023-04-01T16:27:51;9.00;99.90
52513;DHT22;38422;53.172;6.974;2023-04-01T16:30:42;8.90;99.90
52513;DHT22;38422;53.172;6.974;2023-04-01T16:33:32;8.90;99.90
52513;DHT22;38422;53.172;6.974;2023-04-01T16:47:27;8.80;99.90
52513;DHT22;38422;53.172;6.974;2023-04-01T16:53:14;8.70;99.90
52513;DHT22;38422;53.172;6.974;2023-04-01T16:55:52;8.60;99.90
52513;DHT22;38422;53.172;6.974;2023-04-01T16:58:27;8.60;99.90
52513;DHT22;38422;53.172;6.974;2023-04-01T17:01:35;8.60;99.90
52513;DHT22;38422;53.172;6.974;2023-04-01T17:04:43;8.60;99.90
52513;DHT22;38422;53.172;6.974;2023-04-01T17:07:38;8.50;99.90
52513;DHT22;38422;53.172;6.974;2023-04-01T17:33:19;8.30;99.90
52513;DHT22;38422;53.172;6.974;2023-04-01T17:36:04;8.20;99.90
52513;DHT22;38422;53.172;6.974;2023-04-01T17:39:01;8.20;99.90
52513;DHT22;38422;53.172;6.974;2023-04-01T17:41:51;8.20;99.90
52513;DHT22;38422;53.172;6.974;2023-04-01T18:01:13;7.80;99.90
52513;DHT22;38422;53.172;6.974;2023-04-01T18:25:46;7.80;99.90
52513;DHT22;38422;53.172;6.974;2023-04-01T18:28:41;7.70;99.90
52513;DHT22;38422;53.172;6.974;2023-04-01T18:31:16;7.70;99.90
52513;DHT22;38422;53.172;6.974;2023-04-01T18:33:44;7.70;99.90
52513;DHT22;38422;53.172;6.974;2023-04-01T18:39:03;7.70;99.90
52513;DHT22;38422;53.172;6.974;2023-04-01T18:41:49;7.60;99.90
52513;DHT22;38422;53.172;6.974;2023-04-01T18:44:41;7.60;99.90
52513;DHT22;38422;53.172;6.974;2023-04-01T18:52:44;7.50;99.90
52513;DHT22;38422;53.172;6.974;2023-04-01T18:58:32;7.50;99.90
52513;DHT22;38422;53.172;6.974;2023-04-01T19:03:39;7.50;99.90
52513;DHT22;38422;53.172;6.974;2023-04-01T19:06:23;7.50;99.90
52513;DHT22;38422;53.172;6.974;2023-04-01T19:08:52;7.40;99.90
52513;DHT22;38422;53.172;6.974;2023-04-01T19:14:18;7.30;99.90
52513;DHT22;38422;53.172;6.974;2023-04-01T19:17:24;7.30;99.90
52513;DHT22;38422;53.172;6.974;2023-04-01T19:20:18;7.30;99.90
52513;DHT22;38422;53.172;6.974;2023-04-01T19:25:37;7.20;99.90
52513;DHT22;38422;53.172;6.974;2023-04-01T19:28:27;7.20;99.90
52513;DHT22;38422;53.172;6.974;2023-04-01T19:31:24;7.10;99.90
52513;DHT22;38422;53.172;6.974;2023-04-01T19:34:14;7.10;99.90
52513;DHT22;38422;53.172;6.974;2023-04-01T19:40:17;7.00;99.90
52513;DHT22;38422;53.172;6.974;2023-04-01T19:42:52;7.00;99.90
52513;DHT22;38422;53.172;6.974;2023-04-01T19:58:54;6.90;99.90
52513;DHT22;38422;53.172;6.974;2023-04-01T20:04:20;6.90;99.90
52513;DHT22;38422;53.172;6.974;2023-04-01T20:06:54;6.90;99.90
52513;DHT22;38422;53.172;6.974;2023-04-01T20:09:45;6.90;99.90
52513;DHT22;38422;53.172;6.974;2023-04-01T20:15:33;6.90;99.90
52513;DHT22;38422;53.172;6.974;2023-04-01T20:18:08;6.90;99.90
52513;DHT22;38422;53.172;6.974;2023-04-01T20:20:39;6.90;99.90
52513;DHT22;38422;53.172;6.974;2023-04-01T20:23:26;6.90;99.90
52513;DHT22;38422;53.172;6.974;2023-04-01T20:26:06;6.90;99.90
52513;DHT22;38422;53.172;6.974;2023-04-01T20:28:46;6.80;99.90
52513;DHT22;38422;53.172;6.974;2023-04-01T20:34:22;6.70;99.90
52513;DHT22;38422;53.172;6.974;2023-04-01T20:37:18;6.70;99.90
52513;DHT22;38422;53.172;6.974;2023-04-01T20:51:35;6.70;99.90
52513;DHT22;38422;53.172;6.974;2023-04-01T21:02:15;6.70;99.90
52513;DHT22;38422;53.172;6.974;2023-04-01T21:05:17;6.60;99.90
52513;DHT22;38422;53.172;6.974;2023-04-01T21:16:58;6.60;99.90
52513;DHT22;38422;53.172;6.974;2023-04-01T21:27:49;6.40;99.90
52513;DHT22;38422;53.172;6.974;2023-04-01T21:39:22;6.40;99.90
52513;DHT22;38422;53.172;6.974;2023-04-01T21:44:38;6.40;99.90
52513;DHT22;38422;53.172;6.974;2023-04-01T22:05:07;6.30;99.90
52513;DHT22;38422;53.172;6.974;2023-04-01T22:07:33;6.20;99.90
52513;DHT22;38422;53.172;6.974;2023-04-01T22:10:47;6.30;99.90
52513;DHT22;38422;53.172;6.974;2023-04-01T22:20:56;6.10;99.90
52513;DHT22;38422;53.172;6.974;2023-04-01T22:23:55;6.10;99.90
52513;DHT22;38422;53.172;6.974;2023-04-01T22:26:47;6.10;99.90
52513;DHT22;38422;53.172;6.974;2023-04-01T22:32:29;6.00;99.90
52513;DHT22;38422;53.172;6.974;2023-04-01T22:43:12;6.00;99.90
52513;DHT22;38422;53.172;6.974;2023-04-01T22:51:21;6.00;99.90
52513;DHT22;38422;53.172;6.974;2023-04-01T22:54:25;6.00;99.90
52513;DHT22;38422;53.172;6.974;2023-04-01T22:59:54;5.90;99.90
52513;DHT22;38422;53.172;6.974;2023-04-01T23:02:33;5.80;99.90
52513;DHT22;38422;53.172;6.974;2023-04-01T23:05:05;5.80;99.90
52513;DHT22;38422;53.172;6.974;2023-04-01T23:07:59;5.70;99.90
52513;DHT22;38422;53.172;6.974;2023-04-01T23:10:42;5.70;99.90
52513;DHT22;38422;53.172;6.974;2023-04-01T23:13:39;5.70;99.90
52513;DHT22;38422;53.172;6.974;2023-04-01T23:16:06;5.70;99.90
52513;DHT22;38422;53.172;6.974;2023-04-01T23:18:46;5.50;99.90
52513;DHT22;38422;53.172;6.974;2023-04-01T23:27:06;5.40;99.90
52513;DHT22;38422;53.172;6.974;2023-04-01T23:29:36;5.50;99.90
52513;DHT22;38422;53.172;6.974;2023-04-01T23:32:10;5.50;99.90
52513;DHT22;38422;53.172;6.974;2023-04-01T23:34:38;5.50;99.90
52513;DHT22;38422;53.172;6.974;2023-04-01T23:37:09;5.50;99.90
52513;DHT22;38422;53.172;6.974;2023-04-01T23:39:39;5.50;99.90
52513;DHT22;38422;53.172;6.974;2023-04-01T23:42:12;5.40;99.90
52513;DHT22;38422;53.172;6.974;2023-04-01T23:44:39;5.40;99.90
52513;DHT22;38422;53.172;6.974;2023-04-01T23:47:06;5.40;99.90
52513;DHT22;38422;53.172;6.974;2023-04-01T23:49:51;5.30;99.90
52513;DHT22;38422;53.172;6.974;2023-04-01T23:52:24;5.30;99.90
52513;DHT22;38422;53.172;6.974;2023-04-01T23:55:01;5.20;99.90
52513;DHT22;38422;53.172;6.974;2023-04-01T23:57:35;5.20;99.90
